createdAt,value
2023-01-08T00:00:35.903Z,10.2
2023-01-08T00:10:36.030Z,10.3
2023-01-08T00:20:36.659Z,10.2
2023-01-08T00:30:37.245Z,10.3
2023-01-08T00:40:37.770Z,10.3
2023-01-08T00:50:38.814Z,10.3
2023-01-08T01:00:38.878Z,10.4
2023-01-08T01:10:39.353Z,10.5
2023-01-08T01:20:40.233Z,10.6
2023-01-08T01:30:41.088Z,10.6
2023-01-08T01:40:41.290Z,10.6
2023-01-08T01:50:42.091Z,10.7
2023-01-08T02:00:42.726Z,10.6
2023-01-08T02:10:43.637Z,10.6
2023-01-08T02:20:43.884Z,10.5
2023-01-08T02:40:44.518Z,10.6
2023-01-08T02:50:44.745Z,10.6
2023-01-08T03:00:45.032Z,10.5
2023-01-08T03:10:45.645Z,10.4
2023-01-08T03:20:46.562Z,10.4
2023-01-08T03:40:47.824Z,10.2
2023-01-08T04:00:48.893Z,10.2
2023-01-08T04:10:49.927Z,10.3
2023-01-08T04:20:50.302Z,10.3
2023-01-08T04:30:51.286Z,10.2
2023-01-08T04:40:51.678Z,10.3
2023-01-08T05:00:52.437Z,10.3
2023-01-08T05:10:53.105Z,10.2
2023-01-08T05:20:53.305Z,10.2
2023-01-08T05:30:53.868Z,10.1
2023-01-08T05:40:54.264Z,10.1
2023-01-08T05:50:54.915Z,10.1
2023-01-08T06:00:55.404Z,10.1
2023-01-08T06:10:55.734Z,10.2
2023-01-08T06:20:56.274Z,10.3
2023-01-08T06:30:56.398Z,10.3
2023-01-08T06:40:57.286Z,10.4
2023-01-08T06:50:57.776Z,10.3
2023-01-08T07:00:58.152Z,9.4
2023-01-08T07:10:58.284Z,8.6
2023-01-08T07:20:59.220Z,8.4
2023-01-08T07:41:00.469Z,8.3
2023-01-08T07:51:01.322Z,8.3
2023-01-08T08:01:02.352Z,8.3
2023-01-08T08:11:02.973Z,8.2
2023-01-08T08:31:05.132Z,8.3
2023-01-08T08:41:05.334Z,8.2
2023-01-08T09:01:06.328Z,8
2023-01-08T09:21:07.437Z,8.5
2023-01-08T09:31:08.299Z,9
2023-01-08T09:41:08.871Z,9.5
2023-01-08T10:01:10.827Z,10.1
2023-01-08T10:21:11.901Z,10.6
2023-01-08T10:31:12.527Z,10.7
2023-01-08T10:41:13.094Z,10.4
2023-01-08T10:51:13.796Z,11.1
2023-01-08T11:01:14.609Z,10.8
2023-01-08T11:11:15.275Z,10.8
2023-01-08T11:41:16.907Z,10.9
2023-01-08T11:51:17.918Z,10.9
2023-01-08T12:11:19.257Z,11.1
2023-01-08T12:21:19.950Z,10.9
2023-01-08T12:31:20.317Z,10.8
2023-01-08T12:41:21.012Z,10.7
2023-01-08T13:01:22.555Z,9.2
2023-01-08T13:11:22.902Z,8.5
2023-01-08T13:21:23.093Z,9.4
2023-01-08T13:31:23.551Z,9.5
2023-01-08T13:41:23.734Z,9.4
2023-01-08T14:01:25.387Z,9.3
2023-01-08T14:11:26.345Z,9.3
2023-01-08T14:21:26.664Z,9.5
2023-01-08T14:31:27.660Z,9.7
2023-01-08T14:41:28.657Z,9.6
2023-01-08T14:51:29.592Z,9.4
2023-01-08T15:01:30.453Z,9.4
2023-01-08T15:21:31.543Z,9.3
2023-01-08T15:31:32.107Z,9.1
2023-01-08T15:41:32.808Z,8.9
2023-01-08T15:51:33.101Z,8.7
2023-01-08T16:11:34.252Z,8.7
2023-01-08T16:31:36.972Z,8.5
2023-01-08T17:01:36.893Z,8.5
2023-01-08T17:11:37.561Z,8.6
2023-01-08T17:21:38.323Z,8.7
2023-01-08T17:31:39.178Z,8.9
2023-01-08T17:41:40.095Z,9
2023-01-08T18:11:41.822Z,8.6
2023-01-08T18:21:42.830Z,8.5
2023-01-08T18:31:45.806Z,8.5
2023-01-08T18:41:44.014Z,8.3
2023-01-08T18:51:44.826Z,8
2023-01-08T19:01:45.086Z,7.9
2023-01-08T19:31:47.105Z,7.8
2023-01-08T19:51:48.463Z,7.5
2023-01-08T20:01:49.129Z,7.7
2023-01-08T20:11:49.957Z,8.1
2023-01-08T20:41:55.641Z,8.5
2023-01-08T21:01:53.316Z,8.2
2023-01-08T21:11:53.978Z,8.2
2023-01-08T21:21:54.474Z,8.4
2023-01-08T21:31:55.192Z,8.4
2023-01-08T21:41:55.253Z,8.5
2023-01-08T21:51:56.222Z,8.7
2023-01-08T22:01:57.108Z,8.6
2023-01-08T22:11:57.296Z,8.7
2023-01-08T22:31:59.297Z,8.9
2023-01-08T22:41:59.802Z,8.9
2023-01-08T23:12:01.020Z,8.3
2023-01-08T23:22:01.366Z,8.1
2023-01-08T23:32:02.259Z,8
2023-01-08T23:42:02.615Z,8
2023-01-08T23:52:02.794Z,7.9
